Time;durP1;ratioP1;P1;durP2;ratioP2;P2;SDS_P1;SDS_P2;PMS_P1;PMS_P2;Temp;Humidity;BMP_temperature;BMP_pressure;BME280_temperature;BME280_humidity;BME280_pressure;Samples;Min_cycle;Max_cycle;Signal;HPM_P1;HPM_P2
2023/04/09 00:01:56;;;;;;;68.18;37.03;;;;;;;6.63;100.00;102737.34;10176057;28;20468;-67
2023/04/09 00:06:53;;;;;;;70.78;39.58;;;;;;;6.62;100.00;102733.00;10167246;28;20038;-67
2023/04/09 00:11:50;;;;;;;73.95;39.45;;;;;;;6.49;100.00;102731.38;10174329;28;20073;-67
2023/04/09 00:16:46;;;;;;;72.25;37.65;;;;;;;6.51;100.00;102731.97;10175538;28;20092;-68
2023/04/09 00:21:42;;;;;;;73.30;36.83;;;;;;;6.49;100.00;102731.38;10177328;28;20054;-67
2023/04/09 00:26:39;;;;;;;71.28;35.22;;;;;;;6.55;100.00;102724.97;10174245;28;20053;-67
2023/04/09 00:31:35;;;;;;;74.15;39.78;;;;;;;6.46;100.00;102724.53;10169337;28;20072;-67
2023/04/09 00:36:32;;;;;;;86.93;42.53;;;;;;;6.32;100.00;102736.75;10163652;28;20037;-67
2023/04/09 00:41:28;;;;;;;78.43;37.80;;;;;;;6.43;100.00;102729.59;10153889;28;20411;-67
2023/04/09 00:46:25;;;;;;;78.68;39.40;;;;;;;6.39;100.00;102723.84;10164010;28;20066;-67
2023/04/09 00:51:21;;;;;;;79.05;37.72;;;;;;;6.44;100.00;102726.66;10168355;28;20133;-67
2023/04/09 00:56:21;;;;;;;64.35;34.15;;;;;;;6.46;100.00;102727.25;10163257;28;20477;-67
2023/04/09 01:01:17;;;;;;;70.63;34.63;;;;;;;6.52;100.00;102720.84;10163428;28;20046;-67
2023/04/09 01:06:34;;;;;;;79.95;38.67;;;;;;;6.51;100.00;102727.34;10172137;28;21387;-67
2023/04/09 01:11:45;;;;;;;73.25;36.15;;;;;;;6.59;100.00;102733.47;10177228;28;20436;-67
2023/04/09 01:16:45;;;;;;;83.50;41.28;;;;;;;6.49;100.00;102723.22;10160294;28;20055;-67
2023/04/09 01:21:44;;;;;;;70.65;36.20;;;;;;;6.53;100.00;102732.53;10164040;28;20501;-67
2023/04/09 01:27:05;;;;;;;80.72;39.40;;;;;;;6.55;100.00;102726.88;10161373;28;20052;-67
2023/04/09 01:32:03;;;;;;;72.85;36.17;;;;;;;6.56;100.00;102723.09;10168699;28;20042;-67
2023/04/09 01:37:02;;;;;;;72.20;36.33;;;;;;;6.40;100.00;102722.75;10179490;28;20046;-67
2023/04/09 01:41:59;;;;;;;63.85;33.35;;;;;;;6.53;100.00;102729.84;10180295;28;20045;-67
2023/04/09 01:46:57;;;;;;;76.57;34.92;;;;;;;6.53;100.00;102727.94;10183299;28;20132;-67
2023/04/09 01:51:54;;;;;;;78.55;39.17;;;;;;;6.44;100.00;102721.22;10181556;28;20046;-67
2023/04/09 01:56:50;;;;;;;77.65;37.90;;;;;;;6.48;100.00;102714.25;10180623;28;20133;-67
2023/04/09 02:01:58;;;;;;;89.32;39.75;;;;;;;6.51;100.00;102713.75;10180126;28;20062;-66
2023/04/09 02:07:05;;;;;;;89.30;42.00;;;;;;;6.44;100.00;102710.34;10177843;28;20042;-67
2023/04/09 02:12:05;;;;;;;81.93;37.95;;;;;;;6.44;100.00;102709.53;10176718;28;20054;-67
2023/04/09 02:17:02;;;;;;;86.82;40.80;;;;;;;6.48;100.00;102705.28;10169908;28;20045;-67
2023/04/09 02:21:58;;;;;;;87.50;41.45;;;;;;;6.46;100.00;102707.41;10173869;28;20133;-68
2023/04/09 02:26:54;;;;;;;81.00;37.67;;;;;;;6.42;100.00;102696.19;10175068;28;20048;-67
2023/04/09 02:31:52;;;;;;;85.20;39.15;;;;;;;6.38;100.00;102694.19;10173664;28;20046;-67
2023/04/09 02:36:48;;;;;;;85.63;37.90;;;;;;;6.44;100.00;102699.47;10186537;28;20052;-67
2023/04/09 02:41:45;;;;;;;81.60;39.03;;;;;;;6.47;100.00;102699.00;10184813;28;20052;-67
2023/04/09 02:46:43;;;;;;;78.68;37.47;;;;;;;6.46;100.00;102691.91;10177019;28;20082;-67
2023/04/09 02:51:39;;;;;;;72.43;36.75;;;;;;;6.55;100.00;102688.84;10179535;28;20038;-67
2023/04/09 02:56:36;;;;;;;74.43;36.22;;;;;;;6.39;100.00;102680.38;10175618;28;20057;-67
2023/04/09 03:01:32;;;;;;;71.78;36.83;;;;;;;6.44;100.00;102683.19;10174947;28;20048;-67
2023/04/09 03:06:29;;;;;;;80.00;36.75;;;;;;;6.49;100.00;102686.00;10172399;28;20077;-67
2023/04/09 03:11:26;;;;;;;79.95;38.88;;;;;;;6.43;100.00;102681.53;10171209;28;20042;-67
2023/04/09 03:16:24;;;;;;;83.78;38.40;;;;;;;6.41;100.00;102677.41;10171067;28;20046;-67
2023/04/09 03:21:21;;;;;;;92.68;37.03;;;;;;;6.38;100.00;102665.13;10182288;28;20108;-67
2023/04/09 03:26:17;;;;;;;79.22;37.40;;;;;;;6.40;100.00;102664.88;10169693;28;20050;-67
2023/04/09 03:31:14;;;;;;;93.65;41.50;;;;;;;6.37;100.00;102671.63;10181656;28;20046;-68
2023/04/09 03:36:10;;;;;;;81.60;38.70;;;;;;;6.32;100.00;102663.38;10175222;28;20054;-66
2023/04/09 03:41:07;;;;;;;88.93;39.28;;;;;;;6.27;100.00;102660.56;10179103;28;20061;-67
2023/04/09 03:46:15;;;;;;;99.53;44.72;;;;;;;6.33;100.00;102662.31;10169077;28;20056;-67
2023/04/09 03:51:13;;;;;;;83.63;37.15;;;;;;;6.38;100.00;102670.53;10163457;28;20420;-67
2023/04/09 03:56:10;;;;;;;67.03;33.88;;;;;;;6.30;100.00;102665.50;10170956;28;20129;-67
2023/04/09 04:01:06;;;;;;;75.10;37.28;;;;;;;6.38;100.00;102667.84;10169329;28;20057;-67
2023/04/09 04:06:03;;;;;;;74.18;34.08;;;;;;;6.35;100.00;102668.31;10177453;28;20039;-67
2023/04/09 04:11:02;;;;;;;71.53;36.22;;;;;;;6.35;100.00;102673.75;10177298;28;20053;-67
2023/04/09 04:15:59;;;;;;;81.57;39.47;;;;;;;6.32;100.00;102674.25;10162537;28;20134;-67
2023/04/09 04:20:55;;;;;;;73.35;35.20;;;;;;;6.34;100.00;102677.56;10171317;28;20493;-67
2023/04/09 04:25:52;;;;;;;59.92;33.13;;;;;;;6.35;100.00;102673.75;10171881;28;20070;-67
2023/04/09 04:30:48;;;;;;;60.83;33.60;;;;;;;6.41;100.00;102674.69;10170783;28;20069;-67
2023/04/09 04:35:45;;;;;;;79.03;36.35;;;;;;;6.37;100.00;102682.50;10164480;28;20085;-67
2023/04/09 04:40:41;;;;;;;74.80;37.33;;;;;;;6.40;100.00;102681.19;10171884;28;20056;-66
2023/04/09 04:45:38;;;;;;;71.32;37.60;;;;;;;6.47;100.00;102674.53;10158175;28;20081;-67
2023/04/09 04:50:34;;;;;;;72.53;37.10;;;;;;;6.49;100.00;102680.56;10160550;28;20435;-67
2023/04/09 04:55:35;;;;;;;69.28;36.55;;;;;;;6.43;100.00;102676.09;10170383;28;20046;-67
2023/04/09 05:00:31;;;;;;;86.45;41.00;;;;;;;6.46;100.00;102686.47;10175523;28;20057;-67
2023/04/09 05:05:28;;;;;;;90.65;40.40;;;;;;;6.43;100.00;102686.97;10170594;28;20140;-67
2023/04/09 05:10:24;;;;;;;101.47;43.33;;;;;;;6.46;100.00;102683.78;10174210;28;20053;-67
2023/04/09 05:15:21;;;;;;;94.28;40.05;;;;;;;6.44;100.00;102683.19;10168543;28;20073;-67
2023/04/09 05:20:17;;;;;;;96.10;40.75;;;;;;;6.50;100.00;102687.66;10174225;28;20125;-68
2023/04/09 05:25:15;;;;;;;86.32;39.65;;;;;;;6.51;100.00;102692.00;10159017;28;20088;-68
2023/04/09 05:30:12;;;;;;;99.55;44.83;;;;;;;6.52;100.00;102690.97;10155647;28;20062;-68
2023/04/09 05:35:08;;;;;;;80.30;36.83;;;;;;;6.50;100.00;102690.38;10168019;28;20057;-68
2023/04/09 05:40:05;;;;;;;87.35;39.65;;;;;;;6.46;100.00;102686.47;10170957;28;20125;-68
2023/04/09 05:45:02;;;;;;;91.15;40.05;;;;;;;6.51;100.00;102697.44;10169296;28;20174;-68
2023/04/09 05:49:58;;;;;;;85.75;39.63;;;;;;;6.59;100.00;102698.13;10167961;28;20125;-67
2023/04/09 05:54:55;;;;;;;90.68;39.28;;;;;;;6.52;100.00;102696.41;10166190;28;20054;-67
2023/04/09 05:59:51;;;;;;;91.35;40.10;;;;;;;6.71;100.00;102698.94;10164535;28;20048;-68
2023/04/09 06:04:47;;;;;;;87.72;40.47;;;;;;;6.59;100.00;102703.56;10166277;28;20061;-67
2023/04/09 06:09:45;;;;;;;91.03;41.42;;;;;;;6.64;100.00;102698.25;10154267;28;20045;-67
2023/04/09 06:14:42;;;;;;;91.72;43.53;;;;;;;6.69;100.00;102710.03;10164920;28;20065;-67
2023/04/09 06:19:39;;;;;;;83.35;39.25;;;;;;;6.56;100.00;102701.34;10175905;28;20080;-67
2023/04/09 06:24:35;;;;;;;102.00;44.58;;;;;;;6.59;100.00;102706.28;10183080;28;20049;-68
2023/04/09 06:29:32;;;;;;;97.57;41.35;;;;;;;6.52;100.00;102706.41;10173739;28;20045;-67
2023/04/09 06:34:28;;;;;;;102.65;42.75;;;;;;;6.62;100.00;102717.50;10180621;28;20046;-67
2023/04/09 06:39:24;;;;;;;94.07;42.58;;;;;;;6.69;100.00;102717.38;10182812;28;20644;-67
2023/04/09 06:44:23;;;;;;;106.88;44.40;;;;;;;6.69;100.00;102722.81;10180702;28;20057;-68
2023/04/09 06:49:19;;;;;;;99.57;40.35;;;;;;;6.71;100.00;102721.50;10183314;28;20046;-68
2023/04/09 06:54:15;;;;;;;99.18;42.88;;;;;;;6.77;100.00;102724.31;10174182;28;20068;-68
2023/04/09 06:59:12;;;;;;;83.28;38.95;;;;;;;6.81;100.00;102726.28;10184294;28;20539;-68
2023/04/09 07:04:08;;;;;;;101.80;43.58;;;;;;;6.87;100.00;102735.34;10174046;28;20042;-68
2023/04/09 07:09:05;;;;;;;104.38;43.35;;;;;;;6.81;100.00;102726.28;10173086;28;20050;-68
2023/04/09 07:14:02;;;;;;;99.15;42.70;;;;;;;6.93;100.00;102718.91;10177314;28;20531;-68
2023/04/09 07:18:58;;;;;;;92.90;40.90;;;;;;;6.97;100.00;102721.16;10171361;28;20049;-68
2023/04/09 07:23:55;;;;;;;85.22;38.17;;;;;;;6.98;100.00;102720.06;10175583;28;20049;-68
2023/04/09 07:28:51;;;;;;;84.85;39.78;;;;;;;7.01;100.00;102722.28;10161365;28;20401;-68
2023/04/09 07:33:48;;;;;;;89.47;41.95;;;;;;;7.14;100.00;102724.69;10179771;28;20062;-68
2023/04/09 07:38:44;;;;;;;85.85;40.85;;;;;;;7.15;100.00;102726.38;10177000;28;20112;-68
2023/04/09 07:43:41;;;;;;;88.63;40.15;;;;;;;7.25;100.00;102725.72;10169650;28;20046;-68
2023/04/09 07:48:37;;;;;;;82.57;36.83;;;;;;;7.27;100.00;102729.84;10167943;28;20460;-68
2023/04/09 07:53:34;;;;;;;83.28;38.53;;;;;;;7.21;100.00;102730.00;10174106;28;20121;-68
2023/04/09 07:58:30;;;;;;;77.68;35.83;;;;;;;7.23;100.00;102719.69;10175103;28;20078;-68
2023/04/09 08:03:27;;;;;;;70.25;35.40;;;;;;;7.41;100.00;102724.06;10177242;28;20149;-68
2023/04/09 08:08:24;;;;;;;69.78;32.80;;;;;;;7.71;100.00;102721.81;10168402;28;20048;-68
2023/04/09 08:13:24;;;;;;;67.93;34.70;;;;;;;7.87;100.00;102722.88;10167739;28;20105;-68
2023/04/09 08:18:21;;;;;;;62.25;33.28;;;;;;;7.99;100.00;102720.88;10175503;28;20500;-68
2023/04/09 08:23:17;;;;;;;60.92;31.58;;;;;;;7.90;100.00;102721.56;10172422;28;20522;-68
2023/04/09 08:28:14;;;;;;;54.95;29.90;;;;;;;7.96;100.00;102725.97;10174666;28;20046;-68
2023/04/09 08:33:10;;;;;;;49.38;27.02;;;;;;;8.28;100.00;102722.59;10166452;28;20048;-68
2023/04/09 08:38:06;;;;;;;55.53;29.27;;;;;;;8.27;100.00;102715.50;10170855;28;20419;-68
2023/04/09 08:43:05;;;;;;;33.28;23.63;;;;;;;8.54;100.00;102710.97;10173197;28;20521;-68
2023/04/09 08:48:03;;;;;;;46.22;26.20;;;;;;;8.54;100.00;102710.97;10178628;28;20106;-68
2023/04/09 08:53:04;;;;;;;40.03;22.90;;;;;;;8.49;100.00;102713.63;10166264;28;20049;-68
2023/04/09 08:58:06;;;;;;;36.80;22.70;;;;;;;8.66;100.00;102712.72;10170437;28;20784;-68
2023/04/09 09:03:14;;;;;;;38.50;22.30;;;;;;;9.00;100.00;102714.16;10180446;28;20467;-68
2023/04/09 09:08:22;;;;;;;38.60;20.90;;;;;;;9.16;100.00;102711.56;10164383;28;20082;-66
2023/04/09 09:13:24;;;;;;;35.25;20.60;;;;;;;8.91;100.00;102718.47;10167571;28;20046;-68
2023/04/09 09:18:41;;;;;;;37.25;22.20;;;;;;;9.18;100.00;102714.88;10165640;28;20540;-69
2023/04/09 09:23:38;;;;;;;38.15;23.10;;;;;;;9.40;100.00;102707.44;10170800;28;20045;-69
2023/04/09 09:28:35;;;;;;;30.10;19.17;;;;;;;9.28;100.00;102712.22;10167551;28;20526;-68
2023/04/09 09:33:32;;;;;;;31.63;20.17;;;;;;;9.43;100.00;102706.88;10178963;28;20084;-68
2023/04/09 09:38:29;;;;;;;25.35;17.20;;;;;;;9.36;100.00;102716.41;10182538;28;20046;-68
2023/04/09 09:43:40;;;;;;;30.80;19.45;;;;;;;9.22;100.00;102710.53;10173762;28;20064;-68
2023/04/09 09:48:38;;;;;;;27.92;18.00;;;;;;;9.17;100.00;102707.78;10168524;28;20077;-68
2023/04/09 09:53:40;;;;;;;27.23;17.50;;;;;;;8.97;100.00;102713.84;10167670;28;20045;-68
2023/04/09 09:58:39;;;;;;;;;;;;;;;9.00;100.00;102714.16;10172263;28;20071;-68
2023/04/09 10:03:38;;;;;;;29.15;18.98;;;;;;;9.13;100.00;102701.19;10171041;28;19921;-68
2023/04/09 10:08:37;;;;;;;27.65;18.85;;;;;;;9.25;100.00;102704.56;10182980;28;20065;-68
2023/04/09 10:13:40;;;;;;;29.60;18.60;;;;;;;9.02;100.00;102695.63;10168572;28;20045;-68
2023/04/09 10:18:36;;;;;;;26.20;19.13;;;;;;;9.37;100.00;102702.47;10174691;28;20043;-68
2023/04/09 10:23:37;;;;;;;29.58;17.95;;;;;;;9.52;100.00;102698.22;10176510;28;20057;-68
2023/04/09 10:28:36;;;;;;;30.80;19.08;;;;;;;9.65;100.00;102686.81;10181703;28;20046;-68
2023/04/09 10:33:35;;;;;;;30.38;20.13;;;;;;;9.70;100.00;102689.63;10175163;28;20053;-69
2023/04/09 10:38:34;;;;;;;28.63;18.77;;;;;;;9.73;100.00;102694.53;10180038;28;20049;-68
2023/04/09 10:43:34;;;;;;;29.08;19.33;;;;;;;9.64;100.00;102685.19;10176059;28;20050;-68
2023/04/09 10:48:34;;;;;;;28.08;19.15;;;;;;;9.47;100.00;102690.81;10172297;28;20137;-68
2023/04/09 10:53:31;;;;;;;31.50;20.60;;;;;;;9.39;100.00;102683.91;10176317;28;20128;-68
2023/04/09 10:58:27;;;;;;;30.80;20.08;;;;;;;9.62;100.00;102681.91;10170674;28;20042;-68
2023/04/09 11:03:32;;;;;;;30.52;20.65;;;;;;;9.84;100.00;102674.38;10175769;28;20137;-68
2023/04/09 11:08:32;;;;;;;27.70;19.20;;;;;;;9.84;100.00;102674.38;10166182;28;20522;-68
2023/04/09 11:13:30;;;;;;;36.92;23.25;;;;;;;10.37;100.00;102670.81;10176496;28;20053;-68
2023/04/09 11:18:29;;;;;;;27.25;18.35;;;;;;;10.72;100.00;102662.69;10166798;28;20054;-68
2023/04/09 11:23:25;;;;;;;23.98;16.50;;;;;;;10.64;100.00;102665.13;10175811;28;20060;-68
2023/04/09 11:28:23;;;;;;;27.67;18.20;;;;;;;10.50;100.00;102657.44;10179806;28;20779;-68
2023/04/09 11:33:19;;;;;;;25.65;18.33;;;;;;;11.27;100.00;102662.16;10172827;28;20042;-68
2023/04/09 11:38:16;;;;;;;30.05;18.63;;;;;;;12.12;100.00;102653.22;10162246;28;20042;-68
2023/04/09 11:43:17;;;;;;;27.05;16.70;;;;;;;11.92;100.00;102657.66;10172637;28;20077;-68
2023/04/09 11:48:14;;;;;;;26.95;18.92;;;;;;;12.41;100.00;102643.16;10169195;28;20051;-68
2023/04/09 11:53:15;;;;;;;25.95;18.17;;;;;;;12.35;100.00;102638.84;10176997;28;20041;-68
2023/04/09 11:58:12;;;;;;;23.42;16.48;;;;;;;14.51;100.00;102637.50;10174201;28;20133;-68
2023/04/09 12:03:09;;;;;;;23.15;16.95;;;;;;;16.35;100.00;102633.31;10179796;28;20049;-68
2023/04/09 12:08:07;;;;;;;26.33;19.17;;;;;;;16.35;100.00;102633.31;10170921;28;20396;-68
2023/04/09 12:13:09;;;;;;;22.92;18.05;;;;;;;17.46;100.00;102614.28;10166291;28;20085;-68
2023/04/09 12:18:12;;;;;;;23.65;18.70;;;;;;;17.46;100.00;102614.28;10162235;28;20042;-68
2023/04/09 12:23:10;;;;;;;22.35;17.50;;;;;;;19.60;100.00;102607.78;10163793;28;20046;-68
2023/04/09 12:28:09;;;;;;;22.08;17.58;;;;;;;19.99;100.00;102603.03;10166383;28;20054;-68
2023/04/09 12:33:06;;;;;;;24.15;19.15;;;;;;;17.03;100.00;102593.59;10168436;28;20050;-68
2023/04/09 12:38:06;;;;;;;19.83;16.25;;;;;;;20.25;100.00;102595.31;10159175;28;20054;-68
2023/04/09 12:43:03;;;;;;;21.90;17.48;;;;;;;19.30;100.00;102599.41;10170438;28;20050;-68
2023/04/09 12:47:59;;;;;;;21.58;16.42;;;;;;;20.09;100.00;102594.28;10164854;28;20097;-69
2023/04/09 12:52:56;;;;;;;20.17;16.00;;;;;;;18.10;100.00;102586.16;10170265;28;20046;-68
2023/04/09 12:57:52;;;;;;;22.55;17.50;;;;;;;18.75;100.00;102586.31;10164155;28;20050;-68
2023/04/09 13:02:50;;;;;;;21.73;16.75;;;;;;;19.86;100.00;102586.25;10162414;28;20084;-68
2023/04/09 13:07:46;;;;;;;20.92;17.30;;;;;;;20.30;100.00;102580.41;10153719;28;20050;-68
2023/04/09 13:12:43;;;;;;;21.50;17.48;;;;;;;18.29;100.00;102561.75;10168540;28;20064;-68
2023/04/09 13:17:39;;;;;;;22.33;17.38;;;;;;;16.95;100.00;102558.44;10158974;28;20056;-68
2023/04/09 13:22:36;;;;;;;22.40;17.63;;;;;;;17.82;100.00;102555.19;10157829;28;20050;-68
2023/04/09 13:27:32;;;;;;;19.20;15.13;;;;;;;19.04;100.00;102558.72;10168719;28;20166;-68
2023/04/09 13:32:29;;;;;;;21.05;15.85;;;;;;;19.48;100.00;102545.50;10177544;28;20133;-68
2023/04/09 13:37:26;;;;;;;23.90;17.80;;;;;;;20.61;100.00;102541.09;10174222;28;20048;-68
2023/04/09 13:42:22;;;;;;;25.65;18.13;;;;;;;21.03;100.00;102540.97;10178825;28;20053;-68
2023/04/09 13:47:18;;;;;;;25.73;17.50;;;;;;;20.18;99.79;102539.50;10182232;28;20136;-68
2023/04/09 13:52:15;;;;;;;24.40;17.85;;;;;;;19.94;100.00;102534.63;10180498;28;20523;-68
2023/04/09 13:57:11;;;;;;;21.88;17.05;;;;;;;18.53;100.00;102529.97;10176884;28;20133;-68
2023/04/09 14:02:08;;;;;;;22.35;18.17;;;;;;;18.65;100.00;102524.56;10178516;28;20061;-68
2023/04/09 14:07:05;;;;;;;17.70;15.60;;;;;;;19.96;100.00;102522.03;10182307;28;20042;-68
2023/04/09 14:12:01;;;;;;;26.60;17.90;;;;;;;19.26;100.00;102509.69;10184029;28;20154;-68
2023/04/09 14:16:57;;;;;;;25.08;18.05;;;;;;;18.98;100.00;102510.16;10176802;28;20069;-68
2023/04/09 14:21:54;;;;;;;22.90;16.27;;;;;;;18.39;100.00;102515.50;10179699;28;20045;-69
2023/04/09 14:26:52;;;;;;;24.55;16.33;;;;;;;18.17;100.00;102509.00;10172340;28;20057;-68
2023/04/09 14:31:49;;;;;;;19.70;16.48;;;;;;;17.48;100.00;102514.44;10176834;28;20047;-68
2023/04/09 14:36:45;;;;;;;22.25;16.35;;;;;;;16.83;100.00;102516.75;10172698;28;20566;-68
2023/04/09 14:41:42;;;;;;;24.13;16.65;;;;;;;15.83;100.00;102517.78;10177469;28;20607;-68
2023/04/09 14:46:39;;;;;;;20.25;15.32;;;;;;;16.60;100.00;102508.47;10170356;28;20066;-68
2023/04/09 14:51:36;;;;;;;23.45;16.95;;;;;;;15.81;100.00;102502.66;10171905;28;20100;-68
2023/04/09 14:56:32;;;;;;;24.52;16.98;;;;;;;15.25;100.00;102504.63;10169001;28;20045;-68
2023/04/09 15:01:29;;;;;;;24.52;18.10;;;;;;;15.44;100.00;102499.00;10169582;28;20054;-68
2023/04/09 15:06:28;;;;;;;26.13;17.13;;;;;;;15.54;100.00;102482.25;10171100;28;20566;-69
2023/04/09 15:11:24;;;;;;;25.27;17.67;;;;;;;15.71;100.00;102471.44;10160192;28;20264;-68
2023/04/09 15:16:23;;;;;;;23.83;16.23;;;;;;;15.44;100.00;102471.44;10169686;28;20053;-69
2023/04/09 15:21:20;;;;;;;24.77;17.67;;;;;;;15.14;100.00;102468.19;10171701;28;20129;-68
2023/04/09 15:26:17;;;;;;;25.73;18.70;;;;;;;15.02;100.00;102470.66;10177641;28;20128;-69
2023/04/09 15:31:14;;;;;;;24.92;17.38;;;;;;;15.02;100.00;102473.41;10167905;28;20104;-69
2023/04/09 15:36:10;;;;;;;24.70;17.25;;;;;;;16.04;100.00;102462.94;10161486;28;20038;-69
2023/04/09 15:41:07;;;;;;;25.15;16.60;;;;;;;17.31;100.00;102460.69;10173972;28;20085;-68
2023/04/09 15:46:08;;;;;;;24.17;15.95;;;;;;;17.08;100.00;102465.53;10164596;28;20508;-68
2023/04/09 15:51:05;;;;;;;22.77;16.40;;;;;;;17.40;100.00;102464.28;10168203;28;20538;-68
2023/04/09 15:56:02;;;;;;;22.60;17.05;;;;;;;17.91;100.00;102458.34;10163169;28;20053;-69
2023/04/09 16:01:00;;;;;;;23.40;16.75;;;;;;;17.83;100.00;102452.50;10175605;28;20471;-68
2023/04/09 16:06:00;;;;;;;23.20;17.75;;;;;;;17.46;100.00;102457.47;10163417;28;20508;-69
2023/04/09 16:10:56;;;;;;;20.08;14.88;;;;;;;16.70;100.00;102451.34;10167714;28;20057;-68
2023/04/09 16:15:53;;;;;;;21.17;14.93;;;;;;;16.89;100.00;102443.66;10157155;28;20077;-69
2023/04/09 16:20:54;;;;;;;22.40;16.08;;;;;;;17.41;100.00;102443.81;10167293;28;20415;-69
2023/04/09 16:25:50;;;;;;;24.20;16.80;;;;;;;17.65;100.00;102448.88;10181173;28;20485;-69
2023/04/09 16:30:49;;;;;;;24.33;16.85;;;;;;;17.52;100.00;102438.78;10174057;28;20048;-69
2023/04/09 16:35:46;;;;;;;23.63;16.98;;;;;;;17.46;100.00;102440.88;10170671;28;20042;-68
2023/04/09 16:40:42;;;;;;;25.48;18.40;;;;;;;17.06;100.00;102440.16;10171689;28;20049;-69
2023/04/09 16:45:39;;;;;;;25.67;18.00;;;;;;;16.67;100.00;102440.94;10171591;28;20137;-68
2023/04/09 16:50:35;;;;;;;25.02;18.58;;;;;;;16.24;100.00;102433.22;10185577;28;20041;-68
2023/04/09 16:55:32;;;;;;;33.33;19.95;;;;;;;15.82;100.00;102443.59;10161596;28;20471;-68
2023/04/09 17:00:29;;;;;;;27.80;18.65;;;;;;;15.83;100.00;102431.44;10174708;28;20125;-68
2023/04/09 17:05:25;;;;;;;27.35;17.98;;;;;;;15.26;100.00;102440.94;10161440;28;20042;-68
2023/04/09 17:10:22;;;;;;;29.65;19.77;;;;;;;14.68;100.00;102444.28;10167316;28;20536;-67
2023/04/09 17:15:18;;;;;;;33.70;20.55;;;;;;;14.08;100.00;102454.06;10163945;28;20461;-67
2023/04/09 17:20:15;;;;;;;28.83;19.35;;;;;;;13.81;100.00;102449.28;10159434;28;20057;-67
2023/04/09 17:25:12;;;;;;;32.15;19.52;;;;;;;13.57;100.00;102448.50;10167998;28;20065;-67
2023/04/09 17:30:09;;;;;;;34.22;21.35;;;;;;;13.19;100.00;102443.75;10167352;28;20082;-67
2023/04/09 17:35:06;;;;;;;31.00;20.95;;;;;;;12.65;100.00;102442.16;10177684;28;20468;-68
2023/04/09 17:40:03;;;;;;;33.38;19.75;;;;;;;12.46;100.00;102441.25;10164539;28;20133;-68
2023/04/09 17:44:59;;;;;;;32.95;21.70;;;;;;;12.16;100.00;102456.84;10167083;28;20046;-67
2023/04/09 17:49:56;;;;;;;32.38;20.77;;;;;;;12.03;100.00;102454.78;10170579;28;20042;-68
2023/04/09 17:54:52;;;;;;;30.63;20.88;;;;;;;11.71;100.00;102458.78;10175363;28;20050;-67
2023/04/09 17:59:49;;;;;;;30.98;19.48;;;;;;;11.69;100.00;102450.00;10171373;28;20054;-67
2023/04/09 18:04:46;;;;;;;36.60;21.70;;;;;;;11.41;100.00;102454.28;10169456;28;20393;-68
2023/04/09 18:09:43;;;;;;;34.30;21.00;;;;;;;11.23;100.00;102474.88;10174582;28;20072;-67
2023/04/09 18:14:39;;;;;;;37.17;21.70;;;;;;;11.13;100.00;102470.25;10166714;28;21930;-68
2023/04/09 18:19:36;;;;;;;31.65;20.08;;;;;;;10.91;100.00;102476.09;10170017;28;20129;-67
2023/04/09 18:24:33;;;;;;;32.55;20.60;;;;;;;10.59;100.00;102481.88;10181921;28;20042;-67
2023/04/09 18:29:30;;;;;;;34.47;21.23;;;;;;;10.64;100.00;102468.19;10179977;28;20081;-67
2023/04/09 18:34:26;;;;;;;31.75;21.05;;;;;;;10.60;100.00;102470.63;10172684;28;20081;-68
2023/04/09 18:39:23;;;;;;;46.58;22.48;;;;;;;10.46;100.00;102466.81;10186354;28;20579;-67
2023/04/09 18:44:19;;;;;;;35.63;21.83;;;;;;;10.18;100.00;102470.88;10170114;28;20390;-67
2023/04/09 18:49:16;;;;;;;37.30;23.80;;;;;;;10.03;100.00;102488.09;10185923;28;20057;-68
2023/04/09 18:54:13;;;;;;;31.63;21.25;;;;;;;9.95;100.00;102488.63;10184164;28;20069;-67
2023/04/09 18:59:09;;;;;;;39.08;24.52;;;;;;;9.85;100.00;102497.63;10174943;28;20042;-68
2023/04/09 19:04:05;;;;;;;33.50;23.00;;;;;;;9.81;100.00;102504.72;10171520;28;20046;-67
2023/04/09 19:09:03;;;;;;;39.55;23.80;;;;;;;9.67;100.00;102512.59;10181124;28;20531;-67
2023/04/09 19:14:00;;;;;;;36.00;22.40;;;;;;;9.54;100.00;102521.25;10175303;28;20048;-67
2023/04/09 19:18:57;;;;;;;35.65;22.50;;;;;;;9.41;100.00;102523.41;10175435;28;20042;-69
2023/04/09 19:23:53;;;;;;;32.92;21.83;;;;;;;9.33;100.00;102521.19;10177632;28;20050;-67
2023/04/09 19:28:50;;;;;;;43.25;26.08;;;;;;;9.09;100.00;102519.94;10175455;28;20049;-67
2023/04/09 19:33:46;;;;;;;39.72;24.73;;;;;;;8.95;100.00;102523.13;10167298;28;20057;-67
2023/04/09 19:38:43;;;;;;;43.22;24.35;;;;;;;8.91;100.00;102532.94;10167034;28;20049;-67
2023/04/09 19:43:40;;;;;;;40.75;22.73;;;;;;;8.86;100.00;102530.16;10170913;28;20129;-68
2023/04/09 19:48:39;;;;;;;35.72;21.60;;;;;;;8.75;100.00;102531.16;10168048;28;20047;-67
2023/04/09 19:53:36;;;;;;;35.05;21.42;;;;;;;8.63;100.00;102534.91;10169879;28;20075;-67
2023/04/09 19:58:33;;;;;;;34.72;21.58;;;;;;;8.48;100.00;102521.16;10180090;28;20095;-67
2023/04/09 20:03:31;;;;;;;35.65;23.65;;;;;;;8.28;100.00;102523.66;10173612;28;20497;-67
2023/04/09 20:08:27;;;;;;;32.40;20.80;;;;;;;8.31;100.00;102514.94;10173995;28;20050;-68
2023/04/09 20:13:24;;;;;;;34.33;21.52;;;;;;;8.22;100.00;102512.72;10172837;28;20054;-67
2023/04/09 20:18:20;;;;;;;32.47;22.02;;;;;;;8.23;100.00;102522.50;10165000;28;20046;-67
2023/04/09 20:23:17;;;;;;;35.65;23.02;;;;;;;8.07;100.00;102514.44;10174296;28;20046;-67
2023/04/09 20:28:13;;;;;;;34.08;22.17;;;;;;;8.08;100.00;102516.94;10162026;28;20500;-67
2023/04/09 20:33:10;;;;;;;31.52;20.08;;;;;;;8.02;100.00;102504.31;10168432;28;20074;-67
2023/04/09 20:38:06;;;;;;;34.45;21.05;;;;;;;7.90;100.00;102506.38;10168024;28;20048;-68
2023/04/09 20:43:03;;;;;;;33.50;20.90;;;;;;;7.90;100.00;102498.22;10167614;28;20050;-67
2023/04/09 20:48:00;;;;;;;33.25;21.90;;;;;;;-146.18;100.00;67994.34;10164338;28;20046;-67
2023/04/09 20:52:59;;;;;;;28.80;21.17;;;;;;;-146.18;100.00;67994.34;10170933;28;20084;-67
2023/04/09 20:57:57;;;;;;;31.60;21.83;;;;;;;-146.18;100.00;67994.34;10174907;28;20504;-69
2023/04/09 21:02:53;;;;;;;31.48;20.88;;;;;;;-146.18;100.00;67994.34;10166736;28;20096;-69
2023/04/09 21:07:53;;;;;;;33.03;20.33;;;;;;;-146.18;100.00;67994.34;10173439;28;20045;-69
2023/04/09 21:12:49;;;;;;;32.40;20.80;;;;;;;-146.18;100.00;67994.34;10171795;28;20511;-69
2023/04/09 21:17:46;;;;;;;33.15;22.27;;;;;;;-146.18;100.00;67994.34;10173813;28;20560;-68
2023/04/09 21:22:42;;;;;;;30.90;19.92;;;;;;;-146.18;100.00;67994.34;10175791;28;20045;-68
2023/04/09 21:27:39;;;;;;;33.78;21.75;;;;;;;7.15;100.00;102482.34;10175938;28;20048;-67
2023/04/09 21:32:36;;;;;;;31.50;20.40;;;;;;;7.03;100.00;102483.53;10165713;28;20566;-68
2023/04/09 21:37:33;;;;;;;33.97;20.63;;;;;;;6.94;100.00;102486.69;10163569;28;20058;-68
2023/04/09 21:42:32;;;;;;;28.48;19.33;;;;;;;6.92;100.00;102499.72;10162789;28;20569;-67
2023/04/09 21:47:29;;;;;;;30.50;20.92;;;;;;;6.83;100.00;102494.94;10173510;28;20046;-68
2023/04/09 21:52:25;;;;;;;32.33;21.92;;;;;;;6.75;100.00;102498.88;10176446;28;20053;-67
2023/04/09 21:57:22;;;;;;;31.83;20.33;;;;;;;6.77;100.00;102494.03;10165627;28;20057;-67
2023/04/09 22:02:18;;;;;;;31.98;20.23;;;;;;;6.70;100.00;102501.53;10178670;28;20053;-67
2023/04/09 22:07:15;;;;;;;33.80;23.42;;;;;;;6.63;100.00;102500.88;10181311;28;20096;-68
2023/04/09 22:12:11;;;;;;;30.88;20.23;;;;;;;6.61;100.00;102492.97;10183433;28;20160;-68